sensor_id;sensor_type;location;lat;lon;timestamp;P1;durP1;ratioP1;P2;durP2;ratioP2
13985;SDS011;7067;51.832;8.296;2023-07-20T00:00:58;8.00;;;5.97;;
13985;SDS011;7067;51.832;8.296;2023-07-20T00:03:23;8.23;;;7.50;;
13985;SDS011;7067;51.832;8.296;2023-07-20T00:05:50;7.97;;;6.95;;
13985;SDS011;7067;51.832;8.296;2023-07-20T00:08:17;9.38;;;8.32;;
13985;SDS011;7067;51.832;8.296;2023-07-20T00:10:43;7.65;;;6.95;;
13985;SDS011;7067;51.832;8.296;2023-07-20T00:13:09;8.10;;;7.60;;
13985;SDS011;7067;51.832;8.296;2023-07-20T00:15:35;9.57;;;7.45;;
13985;SDS011;7067;51.832;8.296;2023-07-20T00:18:01;8.02;;;7.43;;
13985;SDS011;7067;51.832;8.296;2023-07-20T00:20:26;9.65;;;8.52;;
13985;SDS011;7067;51.832;8.296;2023-07-20T00:22:51;9.48;;;8.60;;
13985;SDS011;7067;51.832;8.296;2023-07-20T00:25:17;9.57;;;8.05;;
13985;SDS011;7067;51.832;8.296;2023-07-20T00:27:43;8.40;;;7.70;;
13985;SDS011;7067;51.832;8.296;2023-07-20T00:30:09;9.55;;;8.85;;
13985;SDS011;7067;51.832;8.296;2023-07-20T00:32:34;12.02;;;9.02;;
13985;SDS011;7067;51.832;8.296;2023-07-20T00:35:00;8.93;;;7.90;;
13985;SDS011;7067;51.832;8.296;2023-07-20T00:37:25;9.38;;;8.57;;
13985;SDS011;7067;51.832;8.296;2023-07-20T00:39:51;12.13;;;9.13;;
13985;SDS011;7067;51.832;8.296;2023-07-20T00:42:16;10.35;;;9.40;;
13985;SDS011;7067;51.832;8.296;2023-07-20T00:44:41;10.18;;;9.27;;
13985;SDS011;7067;51.832;8.296;2023-07-20T00:47:07;10.18;;;9.23;;
13985;SDS011;7067;51.832;8.296;2023-07-20T00:49:32;9.88;;;9.15;;
13985;SDS011;7067;51.832;8.296;2023-07-20T00:51:58;10.00;;;8.38;;
13985;SDS011;7067;51.832;8.296;2023-07-20T00:54:26;10.27;;;9.32;;
13985;SDS011;7067;51.832;8.296;2023-07-20T00:56:53;10.82;;;9.85;;
13985;SDS011;7067;51.832;8.296;2023-07-20T00:59:18;9.57;;;8.88;;
13985;SDS011;7067;51.832;8.296;2023-07-20T01:01:44;10.52;;;9.63;;
13985;SDS011;7067;51.832;8.296;2023-07-20T01:04:09;11.32;;;9.68;;
13985;SDS011;7067;51.832;8.296;2023-07-20T01:09:41;10.85;;;9.90;;
13985;SDS011;7067;51.832;8.296;2023-07-20T01:12:25;12.27;;;9.95;;
13985;SDS011;7067;51.832;8.296;2023-07-20T01:14:51;11.32;;;10.32;;
13985;SDS011;7067;51.832;8.296;2023-07-20T01:17:17;11.63;;;10.73;;
13985;SDS011;7067;51.832;8.296;2023-07-20T01:19:42;11.45;;;10.48;;
13985;SDS011;7067;51.832;8.296;2023-07-20T01:25:24;16.08;;;11.60;;
13985;SDS011;7067;51.832;8.296;2023-07-20T01:33:38;12.98;;;11.80;;
13985;SDS011;7067;51.832;8.296;2023-07-20T01:36:03;12.43;;;11.13;;
13985;SDS011;7067;51.832;8.296;2023-07-20T01:38:30;13.50;;;12.23;;
13985;SDS011;7067;51.832;8.296;2023-07-20T01:40:57;13.20;;;12.00;;
13985;SDS011;7067;51.832;8.296;2023-07-20T01:43:22;12.27;;;11.48;;
13985;SDS011;7067;51.832;8.296;2023-07-20T01:45:49;13.75;;;12.60;;
13985;SDS011;7067;51.832;8.296;2023-07-20T01:48:15;15.43;;;12.77;;
13985;SDS011;7067;51.832;8.296;2023-07-20T01:50:40;13.50;;;12.20;;
13985;SDS011;7067;51.832;8.296;2023-07-20T01:53:05;13.88;;;12.38;;
13985;SDS011;7067;51.832;8.296;2023-07-20T01:55:31;12.57;;;11.57;;
13985;SDS011;7067;51.832;8.296;2023-07-20T01:57:56;13.30;;;11.93;;
13985;SDS011;7067;51.832;8.296;2023-07-20T02:00:24;13.35;;;12.18;;
13985;SDS011;7067;51.832;8.296;2023-07-20T02:02:50;13.65;;;12.43;;
13985;SDS011;7067;51.832;8.296;2023-07-20T02:05:16;12.90;;;11.68;;
13985;SDS011;7067;51.832;8.296;2023-07-20T02:07:42;13.77;;;12.48;;
13985;SDS011;7067;51.832;8.296;2023-07-20T02:10:07;12.82;;;11.73;;
13985;SDS011;7067;51.832;8.296;2023-07-20T02:12:33;12.38;;;11.48;;
13985;SDS011;7067;51.832;8.296;2023-07-20T02:14:58;13.43;;;12.32;;
13985;SDS011;7067;51.832;8.296;2023-07-20T02:17:23;14.13;;;12.77;;
13985;SDS011;7067;51.832;8.296;2023-07-20T02:19:55;12.05;;;11.07;;
13985;SDS011;7067;51.832;8.296;2023-07-20T02:22:21;12.80;;;11.65;;
13985;SDS011;7067;51.832;8.296;2023-07-20T02:24:46;14.20;;;12.90;;
13985;SDS011;7067;51.832;8.296;2023-07-20T02:27:12;12.93;;;11.75;;
13985;SDS011;7067;51.832;8.296;2023-07-20T02:29:37;13.65;;;12.38;;
13985;SDS011;7067;51.832;8.296;2023-07-20T02:32:03;16.98;;;12.40;;
13985;SDS011;7067;51.832;8.296;2023-07-20T02:34:28;14.18;;;12.85;;
13985;SDS011;7067;51.832;8.296;2023-07-20T02:36:54;16.50;;;13.32;;
13985;SDS011;7067;51.832;8.296;2023-07-20T02:39:21;14.52;;;12.95;;
13985;SDS011;7067;51.832;8.296;2023-07-20T02:41:46;12.45;;;11.45;;
13985;SDS011;7067;51.832;8.296;2023-07-20T02:44:13;13.48;;;12.48;;
13985;SDS011;7067;51.832;8.296;2023-07-20T02:46:39;14.15;;;12.93;;
13985;SDS011;7067;51.832;8.296;2023-07-20T02:49:04;14.05;;;12.65;;
13985;SDS011;7067;51.832;8.296;2023-07-20T02:51:29;15.88;;;12.70;;
13985;SDS011;7067;51.832;8.296;2023-07-20T02:53:55;13.88;;;12.30;;
13985;SDS011;7067;51.832;8.296;2023-07-20T02:56:20;13.93;;;12.00;;
13985;SDS011;7067;51.832;8.296;2023-07-20T02:58:45;12.45;;;11.25;;
13985;SDS011;7067;51.832;8.296;2023-07-20T03:01:11;13.60;;;12.40;;
13985;SDS011;7067;51.832;8.296;2023-07-20T03:03:37;12.52;;;11.48;;
13985;SDS011;7067;51.832;8.296;2023-07-20T03:06:03;12.50;;;10.65;;
13985;SDS011;7067;51.832;8.296;2023-07-20T03:08:28;12.15;;;10.90;;
13985;SDS011;7067;51.832;8.296;2023-07-20T03:10:54;11.35;;;10.38;;
13985;SDS011;7067;51.832;8.296;2023-07-20T03:13:19;13.48;;;11.40;;
13985;SDS011;7067;51.832;8.296;2023-07-20T03:15:44;11.70;;;10.70;;
13985;SDS011;7067;51.832;8.296;2023-07-20T03:18:10;12.50;;;11.05;;
13985;SDS011;7067;51.832;8.296;2023-07-20T03:20:35;11.63;;;10.60;;
13985;SDS011;7067;51.832;8.296;2023-07-20T03:23:01;13.35;;;11.73;;
13985;SDS011;7067;51.832;8.296;2023-07-20T03:25:27;15.73;;;12.48;;
13985;SDS011;7067;51.832;8.296;2023-07-20T03:27:52;13.23;;;11.48;;
13985;SDS011;7067;51.832;8.296;2023-07-20T03:30:18;12.32;;;11.32;;
13985;SDS011;7067;51.832;8.296;2023-07-20T03:32:43;11.40;;;10.43;;
13985;SDS011;7067;51.832;8.296;2023-07-20T03:35:08;16.38;;;10.45;;
13985;SDS011;7067;51.832;8.296;2023-07-20T03:37:34;11.43;;;10.48;;
13985;SDS011;7067;51.832;8.296;2023-07-20T03:40:01;12.80;;;11.48;;
13985;SDS011;7067;51.832;8.296;2023-07-20T03:42:27;12.93;;;11.82;;
13985;SDS011;7067;51.832;8.296;2023-07-20T03:44:53;16.02;;;13.43;;
13985;SDS011;7067;51.832;8.296;2023-07-20T03:47:18;15.50;;;13.00;;
13985;SDS011;7067;51.832;8.296;2023-07-20T03:49:43;14.02;;;12.73;;
13985;SDS011;7067;51.832;8.296;2023-07-20T03:52:09;12.88;;;11.75;;
13985;SDS011;7067;51.832;8.296;2023-07-20T03:54:34;14.10;;;12.20;;
13985;SDS011;7067;51.832;8.296;2023-07-20T03:56:59;12.32;;;11.30;;
13985;SDS011;7067;51.832;8.296;2023-07-20T03:59:25;12.20;;;11.00;;
13985;SDS011;7067;51.832;8.296;2023-07-20T04:01:51;12.27;;;11.27;;
13985;SDS011;7067;51.832;8.296;2023-07-20T04:04:16;11.73;;;10.82;;
13985;SDS011;7067;51.832;8.296;2023-07-20T04:06:42;11.95;;;10.80;;
13985;SDS011;7067;51.832;8.296;2023-07-20T04:09:09;11.82;;;10.82;;
13985;SDS011;7067;51.832;8.296;2023-07-20T04:11:36;10.45;;;9.65;;
13985;SDS011;7067;51.832;8.296;2023-07-20T04:14:01;10.65;;;9.75;;
13985;SDS011;7067;51.832;8.296;2023-07-20T04:16:27;10.65;;;9.85;;
13985;SDS011;7067;51.832;8.296;2023-07-20T04:18:54;10.27;;;9.55;;
13985;SDS011;7067;51.832;8.296;2023-07-20T04:21:20;11.63;;;10.55;;
13985;SDS011;7067;51.832;8.296;2023-07-20T04:23:45;9.95;;;9.30;;
13985;SDS011;7067;51.832;8.296;2023-07-20T04:26:16;11.65;;;10.65;;
13985;SDS011;7067;51.832;8.296;2023-07-20T04:28:47;11.50;;;10.57;;
13985;SDS011;7067;51.832;8.296;2023-07-20T04:31:14;10.77;;;9.98;;
13985;SDS011;7067;51.832;8.296;2023-07-20T04:33:40;11.70;;;10.77;;
13985;SDS011;7067;51.832;8.296;2023-07-20T04:36:05;12.18;;;11.30;;
13985;SDS011;7067;51.832;8.296;2023-07-20T04:38:31;13.18;;;11.90;;
13985;SDS011;7067;51.832;8.296;2023-07-20T04:40:56;12.73;;;11.65;;
13985;SDS011;7067;51.832;8.296;2023-07-20T04:43:21;13.05;;;11.95;;
13985;SDS011;7067;51.832;8.296;2023-07-20T04:45:47;11.70;;;10.75;;
13985;SDS011;7067;51.832;8.296;2023-07-20T04:48:13;11.82;;;10.80;;
13985;SDS011;7067;51.832;8.296;2023-07-20T04:50:40;10.32;;;9.73;;
13985;SDS011;7067;51.832;8.296;2023-07-20T04:53:06;9.88;;;9.23;;
13985;SDS011;7067;51.832;8.296;2023-07-20T04:55:32;9.38;;;8.57;;
13985;SDS011;7067;51.832;8.296;2023-07-20T04:57:59;7.40;;;6.75;;
13985;SDS011;7067;51.832;8.296;2023-07-20T05:00:25;6.15;;;5.75;;
13985;SDS011;7067;51.832;8.296;2023-07-20T05:02:59;6.55;;;6.15;;
13985;SDS011;7067;51.832;8.296;2023-07-20T05:05:30;6.30;;;5.90;;
13985;SDS011;7067;51.832;8.296;2023-07-20T05:07:55;7.13;;;6.53;;
13985;SDS011;7067;51.832;8.296;2023-07-20T05:10:21;6.20;;;5.80;;
13985;SDS011;7067;51.832;8.296;2023-07-20T05:12:46;6.45;;;5.95;;
13985;SDS011;7067;51.832;8.296;2023-07-20T05:15:11;6.15;;;5.63;;
13985;SDS011;7067;51.832;8.296;2023-07-20T05:17:37;6.20;;;5.70;;
13985;SDS011;7067;51.832;8.296;2023-07-20T05:20:02;5.45;;;5.05;;
13985;SDS011;7067;51.832;8.296;2023-07-20T05:22:29;5.63;;;5.22;;
13985;SDS011;7067;51.832;8.296;2023-07-20T05:24:54;5.32;;;5.03;;
13985;SDS011;7067;51.832;8.296;2023-07-20T05:27:20;4.82;;;4.53;;
13985;SDS011;7067;51.832;8.296;2023-07-20T05:29:46;4.88;;;4.57;;
13985;SDS011;7067;51.832;8.296;2023-07-20T05:32:12;4.32;;;4.13;;
13985;SDS011;7067;51.832;8.296;2023-07-20T05:34:38;4.50;;;4.30;;
13985;SDS011;7067;51.832;8.296;2023-07-20T05:37:03;4.72;;;4.50;;
13985;SDS011;7067;51.832;8.296;2023-07-20T05:39:29;4.57;;;4.38;;
13985;SDS011;7067;51.832;8.296;2023-07-20T05:41:54;4.63;;;4.32;;
13985;SDS011;7067;51.832;8.296;2023-07-20T05:44:19;4.18;;;3.88;;
13985;SDS011;7067;51.832;8.296;2023-07-20T05:46:45;3.95;;;3.65;;
13985;SDS011;7067;51.832;8.296;2023-07-20T05:49:10;3.80;;;3.60;;
13985;SDS011;7067;51.832;8.296;2023-07-20T05:51:35;3.25;;;3.05;;
13985;SDS011;7067;51.832;8.296;2023-07-20T05:54:01;3.53;;;2.65;;
13985;SDS011;7067;51.832;8.296;2023-07-20T05:56:26;3.65;;;3.28;;
13985;SDS011;7067;51.832;8.296;2023-07-20T05:58:52;3.35;;;3.13;;
13985;SDS011;7067;51.832;8.296;2023-07-20T06:01:17;3.58;;;2.65;;
13985;SDS011;7067;51.832;8.296;2023-07-20T06:03:44;5.13;;;3.00;;
13985;SDS011;7067;51.832;8.296;2023-07-20T06:06:09;3.28;;;3.08;;
13985;SDS011;7067;51.832;8.296;2023-07-20T06:08:36;3.45;;;2.97;;
13985;SDS011;7067;51.832;8.296;2023-07-20T06:11:02;2.40;;;2.30;;
13985;SDS011;7067;51.832;8.296;2023-07-20T06:13:27;2.90;;;2.70;;
13985;SDS011;7067;51.832;8.296;2023-07-20T06:15:53;2.30;;;2.20;;
13985;SDS011;7067;51.832;8.296;2023-07-20T06:18:18;2.80;;;2.60;;
13985;SDS011;7067;51.832;8.296;2023-07-20T06:20:49;2.90;;;2.70;;
13985;SDS011;7067;51.832;8.296;2023-07-20T06:23:15;2.85;;;2.67;;
13985;SDS011;7067;51.832;8.296;2023-07-20T06:25:41;3.05;;;2.85;;
13985;SDS011;7067;51.832;8.296;2023-07-20T06:28:06;3.45;;;3.20;;
13985;SDS011;7067;51.832;8.296;2023-07-20T06:30:33;3.50;;;3.30;;
13985;SDS011;7067;51.832;8.296;2023-07-20T06:32:59;3.40;;;3.25;;
13985;SDS011;7067;51.832;8.296;2023-07-20T06:35:25;3.63;;;3.42;;
13985;SDS011;7067;51.832;8.296;2023-07-20T06:37:51;3.72;;;3.53;;
13985;SDS011;7067;51.832;8.296;2023-07-20T06:40:16;2.80;;;2.60;;
13985;SDS011;7067;51.832;8.296;2023-07-20T06:42:42;2.90;;;2.63;;
13985;SDS011;7067;51.832;8.296;2023-07-20T06:45:07;2.97;;;2.70;;
13985;SDS011;7067;51.832;8.296;2023-07-20T06:47:33;2.85;;;2.35;;
13985;SDS011;7067;51.832;8.296;2023-07-20T06:49:59;2.30;;;2.10;;
13985;SDS011;7067;51.832;8.296;2023-07-20T06:52:24;1.88;;;1.55;;
13985;SDS011;7067;51.832;8.296;2023-07-20T06:54:50;1.80;;;1.70;;
13985;SDS011;7067;51.832;8.296;2023-07-20T06:57:15;3.60;;;1.75;;
13985;SDS011;7067;51.832;8.296;2023-07-20T06:59:40;1.67;;;1.58;;
13985;SDS011;7067;51.832;8.296;2023-07-20T07:02:06;2.63;;;1.65;;
13985;SDS011;7067;51.832;8.296;2023-07-20T07:04:31;1.38;;;1.08;;
13985;SDS011;7067;51.832;8.296;2023-07-20T07:06:56;1.92;;;1.83;;
13985;SDS011;7067;51.832;8.296;2023-07-20T07:09:22;1.50;;;1.35;;
13985;SDS011;7067;51.832;8.296;2023-07-20T07:11:47;1.77;;;1.50;;
13985;SDS011;7067;51.832;8.296;2023-07-20T07:14:12;1.30;;;1.20;;
13985;SDS011;7067;51.832;8.296;2023-07-20T07:16:38;2.13;;;1.42;;
13985;SDS011;7067;51.832;8.296;2023-07-20T07:19:03;1.52;;;1.50;;
13985;SDS011;7067;51.832;8.296;2023-07-20T07:21:30;1.70;;;1.60;;
13985;SDS011;7067;51.832;8.296;2023-07-20T07:23:56;1.20;;;1.10;;
13985;SDS011;7067;51.832;8.296;2023-07-20T07:26:22;1.73;;;1.27;;
13985;SDS011;7067;51.832;8.296;2023-07-20T07:28:48;1.48;;;1.38;;
13985;SDS011;7067;51.832;8.296;2023-07-20T07:31:14;1.23;;;0.90;;
13985;SDS011;7067;51.832;8.296;2023-07-20T07:33:39;1.88;;;1.75;;
13985;SDS011;7067;51.832;8.296;2023-07-20T07:36:05;1.70;;;1.02;;
13985;SDS011;7067;51.832;8.296;2023-07-20T07:38:31;0.77;;;0.75;;
13985;SDS011;7067;51.832;8.296;2023-07-20T07:40:57;0.85;;;0.80;;
13985;SDS011;7067;51.832;8.296;2023-07-20T07:43:23;1.60;;;0.95;;
13985;SDS011;7067;51.832;8.296;2023-07-20T07:45:48;1.55;;;1.13;;
13985;SDS011;7067;51.832;8.296;2023-07-20T07:48:14;1.13;;;0.50;;
13985;SDS011;7067;51.832;8.296;2023-07-20T07:50:39;1.73;;;0.80;;
13985;SDS011;7067;51.832;8.296;2023-07-20T07:53:08;0.52;;;0.52;;
13985;SDS011;7067;51.832;8.296;2023-07-20T07:55:34;1.90;;;0.70;;
13985;SDS011;7067;51.832;8.296;2023-07-20T07:58:00;0.93;;;0.93;;
13985;SDS011;7067;51.832;8.296;2023-07-20T08:00:25;1.05;;;0.70;;
13985;SDS011;7067;51.832;8.296;2023-07-20T08:02:51;0.98;;;0.95;;
13985;SDS011;7067;51.832;8.296;2023-07-20T08:05:16;2.15;;;0.70;;
13985;SDS011;7067;51.832;8.296;2023-07-20T08:07:42;0.95;;;0.70;;
13985;SDS011;7067;51.832;8.296;2023-07-20T08:10:08;1.55;;;1.00;;
13985;SDS011;7067;51.832;8.296;2023-07-20T08:12:34;0.95;;;0.70;;
13985;SDS011;7067;51.832;8.296;2023-07-20T08:14:59;0.82;;;0.50;;
13985;SDS011;7067;51.832;8.296;2023-07-20T08:17:25;0.80;;;0.50;;
13985;SDS011;7067;51.832;8.296;2023-07-20T08:19:50;0.55;;;0.55;;
13985;SDS011;7067;51.832;8.296;2023-07-20T08:22:16;0.50;;;0.50;;
13985;SDS011;7067;51.832;8.296;2023-07-20T08:24:42;1.00;;;0.50;;
13985;SDS011;7067;51.832;8.296;2023-07-20T08:27:08;2.42;;;0.60;;
13985;SDS011;7067;51.832;8.296;2023-07-20T08:29:34;0.82;;;0.52;;
13985;SDS011;7067;51.832;8.296;2023-07-20T08:32:00;0.95;;;0.57;;
13985;SDS011;7067;51.832;8.296;2023-07-20T08:34:26;0.40;;;0.40;;
13985;SDS011;7067;51.832;8.296;2023-07-20T08:36:51;1.42;;;0.47;;
13985;SDS011;7067;51.832;8.296;2023-07-20T08:39:16;0.40;;;0.40;;
13985;SDS011;7067;51.832;8.296;2023-07-20T08:41:46;1.38;;;0.60;;
13985;SDS011;7067;51.832;8.296;2023-07-20T08:44:11;1.00;;;0.43;;
13985;SDS011;7067;51.832;8.296;2023-07-20T08:46:38;0.68;;;0.50;;
13985;SDS011;7067;51.832;8.296;2023-07-20T08:49:03;0.77;;;0.50;;
13985;SDS011;7067;51.832;8.296;2023-07-20T08:51:30;0.80;;;0.50;;
13985;SDS011;7067;51.832;8.296;2023-07-20T08:53:55;1.40;;;0.52;;
13985;SDS011;7067;51.832;8.296;2023-07-20T08:56:21;1.15;;;0.40;;
13985;SDS011;7067;51.832;8.296;2023-07-20T08:58:49;0.45;;;0.40;;
13985;SDS011;7067;51.832;8.296;2023-07-20T09:01:14;0.60;;;0.50;;
13985;SDS011;7067;51.832;8.296;2023-07-20T09:03:40;1.35;;;0.32;;
13985;SDS011;7067;51.832;8.296;2023-07-20T09:06:08;0.73;;;0.50;;
13985;SDS011;7067;51.832;8.296;2023-07-20T09:08:33;0.90;;;0.52;;
13985;SDS011;7067;51.832;8.296;2023-07-20T09:10:59;0.95;;;0.50;;
13985;SDS011;7067;51.832;8.296;2023-07-20T09:13:24;0.50;;;0.50;;
13985;SDS011;7067;51.832;8.296;2023-07-20T09:15:53;0.90;;;0.63;;
13985;SDS011;7067;51.832;8.296;2023-07-20T09:18:28;2.15;;;0.52;;
13985;SDS011;7067;51.832;8.296;2023-07-20T09:20:58;0.82;;;0.70;;
13985;SDS011;7067;51.832;8.296;2023-07-20T09:25:57;0.50;;;0.38;;
13985;SDS011;7067;51.832;8.296;2023-07-20T09:28:22;0.80;;;0.30;;
13985;SDS011;7067;51.832;8.296;2023-07-20T09:30:48;1.42;;;0.70;;
13985;SDS011;7067;51.832;8.296;2023-07-20T09:33:21;0.45;;;0.30;;
13985;SDS011;7067;51.832;8.296;2023-07-20T09:35:46;0.40;;;0.32;;
13985;SDS011;7067;51.832;8.296;2023-07-20T09:38:12;0.30;;;0.30;;
13985;SDS011;7067;51.832;8.296;2023-07-20T09:40:39;0.52;;;0.22;;
13985;SDS011;7067;51.832;8.296;2023-07-20T09:43:07;0.65;;;0.30;;
13985;SDS011;7067;51.832;8.296;2023-07-20T09:45:34;0.60;;;0.30;;
13985;SDS011;7067;51.832;8.296;2023-07-20T09:48:09;1.40;;;0.40;;
13985;SDS011;7067;51.832;8.296;2023-07-20T09:50:49;0.60;;;0.30;;
13985;SDS011;7067;51.832;8.296;2023-07-20T09:53:16;1.95;;;0.40;;
13985;SDS011;7067;51.832;8.296;2023-07-20T09:55:43;2.50;;;0.45;;
13985;SDS011;7067;51.832;8.296;2023-07-20T09:58:09;0.57;;;0.40;;
13985;SDS011;7067;51.832;8.296;2023-07-20T10:00:36;0.73;;;0.40;;
13985;SDS011;7067;51.832;8.296;2023-07-20T10:03:03;0.85;;;0.40;;
13985;SDS011;7067;51.832;8.296;2023-07-20T10:05:30;0.60;;;0.40;;
13985;SDS011;7067;51.832;8.296;2023-07-20T10:07:59;0.52;;;0.40;;
13985;SDS011;7067;51.832;8.296;2023-07-20T10:10:24;0.40;;;0.30;;
13985;SDS011;7067;51.832;8.296;2023-07-20T10:12:50;1.38;;;0.50;;
13985;SDS011;7067;51.832;8.296;2023-07-20T10:15:20;0.40;;;0.32;;
13985;SDS011;7067;51.832;8.296;2023-07-20T10:17:53;0.77;;;0.50;;
13985;SDS011;7067;51.832;8.296;2023-07-20T10:20:36;1.33;;;0.43;;
13985;SDS011;7067;51.832;8.296;2023-07-20T10:23:02;0.63;;;0.40;;
13985;SDS011;7067;51.832;8.296;2023-07-20T10:25:27;2.75;;;0.60;;
13985;SDS011;7067;51.832;8.296;2023-07-20T10:27:53;0.55;;;0.40;;
13985;SDS011;7067;51.832;8.296;2023-07-20T10:30:19;0.65;;;0.60;;
13985;SDS011;7067;51.832;8.296;2023-07-20T10:32:45;0.40;;;0.40;;
13985;SDS011;7067;51.832;8.296;2023-07-20T10:35:14;0.43;;;0.40;;
13985;SDS011;7067;51.832;8.296;2023-07-20T10:37:50;0.50;;;0.50;;
13985;SDS011;7067;51.832;8.296;2023-07-20T10:48:04;0.60;;;0.60;;
13985;SDS011;7067;51.832;8.296;2023-07-20T10:50:30;0.70;;;0.70;;
13985;SDS011;7067;51.832;8.296;2023-07-20T10:53:30;0.70;;;0.70;;
13985;SDS011;7067;51.832;8.296;2023-07-20T10:55:49;0.93;;;0.90;;
13985;SDS011;7067;51.832;8.296;2023-07-20T10:58:30;0.90;;;0.80;;
13985;SDS011;7067;51.832;8.296;2023-07-20T11:00:57;1.10;;;1.00;;
13985;SDS011;7067;51.832;8.296;2023-07-20T11:03:31;1.27;;;0.90;;
13985;SDS011;7067;51.832;8.296;2023-07-20T11:05:57;1.10;;;1.00;;
13985;SDS011;7067;51.832;8.296;2023-07-20T11:08:42;1.30;;;1.20;;
13985;SDS011;7067;51.832;8.296;2023-07-20T11:14:01;2.05;;;1.00;;
13985;SDS011;7067;51.832;8.296;2023-07-20T11:19:04;0.85;;;0.82;;
13985;SDS011;7067;51.832;8.296;2023-07-20T11:21:34;0.70;;;0.65;;
13985;SDS011;7067;51.832;8.296;2023-07-20T11:24:02;1.80;;;0.85;;
13985;SDS011;7067;51.832;8.296;2023-07-20T11:26:29;1.05;;;0.80;;
13985;SDS011;7067;51.832;8.296;2023-07-20T11:28:54;0.70;;;0.70;;
13985;SDS011;7067;51.832;8.296;2023-07-20T11:31:19;3.17;;;0.70;;
13985;SDS011;7067;51.832;8.296;2023-07-20T11:33:45;0.68;;;0.60;;
13985;SDS011;7067;51.832;8.296;2023-07-20T11:36:11;0.70;;;0.65;;
13985;SDS011;7067;51.832;8.296;2023-07-20T11:38:37;0.52;;;0.52;;
13985;SDS011;7067;51.832;8.296;2023-07-20T11:41:04;0.60;;;0.60;;
13985;SDS011;7067;51.832;8.296;2023-07-20T11:43:29;0.95;;;0.50;;
13985;SDS011;7067;51.832;8.296;2023-07-20T11:45:55;0.50;;;0.50;;
13985;SDS011;7067;51.832;8.296;2023-07-20T11:48:20;0.88;;;0.60;;
13985;SDS011;7067;51.832;8.296;2023-07-20T11:50:46;0.80;;;0.65;;
13985;SDS011;7067;51.832;8.296;2023-07-20T11:53:11;0.52;;;0.50;;
13985;SDS011;7067;51.832;8.296;2023-07-20T11:55:38;0.73;;;0.45;;
13985;SDS011;7067;51.832;8.296;2023-07-20T11:58:04;0.20;;;0.20;;
13985;SDS011;7067;51.832;8.296;2023-07-20T12:00:30;0.57;;;0.57;;
13985;SDS011;7067;51.832;8.296;2023-07-20T12:02:56;0.65;;;0.22;;
13985;SDS011;7067;51.832;8.296;2023-07-20T12:05:22;0.55;;;0.45;;
13985;SDS011;7067;51.832;8.296;2023-07-20T12:07:47;0.50;;;0.28;;
13985;SDS011;7067;51.832;8.296;2023-07-20T12:10:15;0.32;;;0.20;;
13985;SDS011;7067;51.832;8.296;2023-07-20T12:12:41;0.63;;;0.20;;
13985;SDS011;7067;51.832;8.296;2023-07-20T12:15:14;0.22;;;0.22;;
13985;SDS011;7067;51.832;8.296;2023-07-20T12:17:55;0.40;;;0.30;;
13985;SDS011;7067;51.832;8.296;2023-07-20T12:20:32;1.27;;;0.20;;
13985;SDS011;7067;51.832;8.296;2023-07-20T12:23:00;0.70;;;0.30;;
13985;SDS011;7067;51.832;8.296;2023-07-20T12:25:39;0.40;;;0.30;;
13985;SDS011;7067;51.832;8.296;2023-07-20T12:28:10;0.52;;;0.20;;
13985;SDS011;7067;51.832;8.296;2023-07-20T12:30:37;0.20;;;0.20;;
13985;SDS011;7067;51.832;8.296;2023-07-20T12:33:03;0.20;;;0.17;;
13985;SDS011;7067;51.832;8.296;2023-07-20T12:35:29;1.92;;;0.20;;
13985;SDS011;7067;51.832;8.296;2023-07-20T12:37:55;0.30;;;0.30;;
13985;SDS011;7067;51.832;8.296;2023-07-20T12:40:20;0.32;;;0.20;;
13985;SDS011;7067;51.832;8.296;2023-07-20T12:42:46;0.40;;;0.20;;
13985;SDS011;7067;51.832;8.296;2023-07-20T12:45:11;0.30;;;0.20;;
13985;SDS011;7067;51.832;8.296;2023-07-20T12:47:38;1.00;;;0.45;;
13985;SDS011;7067;51.832;8.296;2023-07-20T12:50:03;0.20;;;0.20;;
13985;SDS011;7067;51.832;8.296;2023-07-20T12:52:31;0.20;;;0.20;;
13985;SDS011;7067;51.832;8.296;2023-07-20T12:54:57;0.10;;;0.10;;
13985;SDS011;7067;51.832;8.296;2023-07-20T12:57:23;1.92;;;0.32;;
13985;SDS011;7067;51.832;8.296;2023-07-20T12:59:48;0.68;;;0.30;;
13985;SDS011;7067;51.832;8.296;2023-07-20T13:02:14;0.28;;;0.20;;
13985;SDS011;7067;51.832;8.296;2023-07-20T13:04:39;0.95;;;0.30;;
13985;SDS011;7067;51.832;8.296;2023-07-20T13:07:04;0.20;;;0.20;;
13985;SDS011;7067;51.832;8.296;2023-07-20T13:09:30;0.22;;;0.20;;
13985;SDS011;7067;51.832;8.296;2023-07-20T13:11:55;0.47;;;0.30;;
13985;SDS011;7067;51.832;8.296;2023-07-20T13:14:22;0.35;;;0.30;;
13985;SDS011;7067;51.832;8.296;2023-07-20T13:16:47;0.32;;;0.32;;
13985;SDS011;7067;51.832;8.296;2023-07-20T13:19:12;1.00;;;0.10;;
13985;SDS011;7067;51.832;8.296;2023-07-20T13:21:38;0.82;;;0.20;;
13985;SDS011;7067;51.832;8.296;2023-07-20T13:24:03;0.25;;;0.25;;
13985;SDS011;7067;51.832;8.296;2023-07-20T13:26:29;0.75;;;0.20;;
13985;SDS011;7067;51.832;8.296;2023-07-20T13:28:54;0.40;;;0.20;;
13985;SDS011;7067;51.832;8.296;2023-07-20T13:31:20;0.13;;;0.10;;
13985;SDS011;7067;51.832;8.296;2023-07-20T13:33:45;0.17;;;0.17;;
13985;SDS011;7067;51.832;8.296;2023-07-20T13:36:11;0.55;;;0.20;;
13985;SDS011;7067;51.832;8.296;2023-07-20T13:38:36;0.30;;;0.20;;
13985;SDS011;7067;51.832;8.296;2023-07-20T13:41:01;0.35;;;0.20;;
13985;SDS011;7067;51.832;8.296;2023-07-20T13:43:27;0.38;;;0.28;;
13985;SDS011;7067;51.832;8.296;2023-07-20T13:45:52;0.68;;;0.20;;
13985;SDS011;7067;51.832;8.296;2023-07-20T13:48:17;0.38;;;0.13;;
13985;SDS011;7067;51.832;8.296;2023-07-20T13:50:45;0.38;;;0.10;;
13985;SDS011;7067;51.832;8.296;2023-07-20T13:53:11;0.10;;;0.10;;
13985;SDS011;7067;51.832;8.296;2023-07-20T13:55:37;0.28;;;0.20;;
13985;SDS011;7067;51.832;8.296;2023-07-20T13:58:03;0.45;;;0.15;;
13985;SDS011;7067;51.832;8.296;2023-07-20T14:00:28;0.20;;;0.20;;
13985;SDS011;7067;51.832;8.296;2023-07-20T14:02:58;0.10;;;0.10;;
13985;SDS011;7067;51.832;8.296;2023-07-20T14:05:24;0.65;;;0.65;;
13985;SDS011;7067;51.832;8.296;2023-07-20T14:07:49;1.08;;;0.20;;
13985;SDS011;7067;51.832;8.296;2023-07-20T14:10:15;0.20;;;0.10;;
13985;SDS011;7067;51.832;8.296;2023-07-20T14:12:40;0.45;;;0.28;;
13985;SDS011;7067;51.832;8.296;2023-07-20T14:15:05;0.25;;;0.10;;
13985;SDS011;7067;51.832;8.296;2023-07-20T14:17:31;0.55;;;0.13;;
13985;SDS011;7067;51.832;8.296;2023-07-20T14:19:57;1.95;;;0.57;;
13985;SDS011;7067;51.832;8.296;2023-07-20T14:22:22;0.20;;;0.20;;
13985;SDS011;7067;51.832;8.296;2023-07-20T14:24:48;0.50;;;0.40;;
13985;SDS011;7067;51.832;8.296;2023-07-20T14:27:13;0.35;;;0.15;;
13985;SDS011;7067;51.832;8.296;2023-07-20T14:29:39;1.17;;;0.30;;
13985;SDS011;7067;51.832;8.296;2023-07-20T14:32:04;0.30;;;0.20;;
13985;SDS011;7067;51.832;8.296;2023-07-20T14:34:31;0.32;;;0.20;;
13985;SDS011;7067;51.832;8.296;2023-07-20T14:36:58;0.47;;;0.32;;
13985;SDS011;7067;51.832;8.296;2023-07-20T14:39:24;0.20;;;0.20;;
13985;SDS011;7067;51.832;8.296;2023-07-20T14:41:49;0.70;;;0.20;;
13985;SDS011;7067;51.832;8.296;2023-07-20T14:44:15;0.22;;;0.22;;
13985;SDS011;7067;51.832;8.296;2023-07-20T14:46:41;0.20;;;0.13;;
13985;SDS011;7067;51.832;8.296;2023-07-20T14:49:06;0.10;;;0.10;;
13985;SDS011;7067;51.832;8.296;2023-07-20T14:51:32;0.10;;;0.10;;
13985;SDS011;7067;51.832;8.296;2023-07-20T14:53:58;3.88;;;0.20;;
13985;SDS011;7067;51.832;8.296;2023-07-20T14:56:24;0.63;;;0.20;;
13985;SDS011;7067;51.832;8.296;2023-07-20T14:58:51;0.17;;;0.10;;
13985;SDS011;7067;51.832;8.296;2023-07-20T15:01:17;0.10;;;0.10;;
13985;SDS011;7067;51.832;8.296;2023-07-20T15:03:42;1.45;;;0.10;;
13985;SDS011;7067;51.832;8.296;2023-07-20T15:06:11;0.28;;;0.10;;
13985;SDS011;7067;51.832;8.296;2023-07-20T15:08:36;0.20;;;0.20;;
13985;SDS011;7067;51.832;8.296;2023-07-20T15:11:02;0.10;;;0.10;;
13985;SDS011;7067;51.832;8.296;2023-07-20T15:13:27;2.13;;;0.20;;
13985;SDS011;7067;51.832;8.296;2023-07-20T15:15:52;0.20;;;0.20;;
13985;SDS011;7067;51.832;8.296;2023-07-20T15:18:18;0.30;;;0.30;;